sensor_id;sensor_type;location;lat;lon;timestamp;temperature;humidity
15872;DHT22;8035;51.962;7.162;2023-04-19T00:00:39;10.30;99.90
15872;DHT22;8035;51.962;7.162;2023-04-19T00:03:05;10.20;99.90
15872;DHT22;8035;51.962;7.162;2023-04-19T00:05:31;10.20;99.90
15872;DHT22;8035;51.962;7.162;2023-04-19T00:07:57;10.20;99.90
15872;DHT22;8035;51.962;7.162;2023-04-19T00:10:23;10.20;99.90
15872;DHT22;8035;51.962;7.162;2023-04-19T00:12:48;10.20;99.90
15872;DHT22;8035;51.962;7.162;2023-04-19T00:15:14;10.20;99.90
15872;DHT22;8035;51.962;7.162;2023-04-19T00:17:40;10.10;99.90
15872;DHT22;8035;51.962;7.162;2023-04-19T00:20:06;10.10;99.90
15872;DHT22;8035;51.962;7.162;2023-04-19T00:22:33;10.10;99.90
15872;DHT22;8035;51.962;7.162;2023-04-19T00:24:58;10.10;99.90
15872;DHT22;8035;51.962;7.162;2023-04-19T00:27:24;10.00;99.90
15872;DHT22;8035;51.962;7.162;2023-04-19T00:29:49;10.00;99.90
15872;DHT22;8035;51.962;7.162;2023-04-19T00:32:15;9.90;99.90
15872;DHT22;8035;51.962;7.162;2023-04-19T00:34:41;9.80;99.90
15872;DHT22;8035;51.962;7.162;2023-04-19T00:37:09;9.80;99.90
15872;DHT22;8035;51.962;7.162;2023-04-19T00:39:36;9.70;99.90
15872;DHT22;8035;51.962;7.162;2023-04-19T00:42:01;9.60;99.90
15872;DHT22;8035;51.962;7.162;2023-04-19T00:44:27;9.60;99.90
15872;DHT22;8035;51.962;7.162;2023-04-19T00:46:53;9.50;99.90
15872;DHT22;8035;51.962;7.162;2023-04-19T00:49:21;9.50;99.90
15872;DHT22;8035;51.962;7.162;2023-04-19T00:51:48;9.40;99.90
15872;DHT22;8035;51.962;7.162;2023-04-19T00:54:14;9.40;99.90
15872;DHT22;8035;51.962;7.162;2023-04-19T00:56:40;9.40;99.90
15872;DHT22;8035;51.962;7.162;2023-04-19T00:59:06;9.30;99.90
15872;DHT22;8035;51.962;7.162;2023-04-19T01:01:32;9.20;99.90
15872;DHT22;8035;51.962;7.162;2023-04-19T01:03:59;9.20;99.90
15872;DHT22;8035;51.962;7.162;2023-04-19T01:06:26;9.10;99.90
15872;DHT22;8035;51.962;7.162;2023-04-19T01:08:53;9.10;99.90
15872;DHT22;8035;51.962;7.162;2023-04-19T01:11:19;9.00;99.90
15872;DHT22;8035;51.962;7.162;2023-04-19T01:13:45;9.00;99.90
15872;DHT22;8035;51.962;7.162;2023-04-19T01:16:11;8.90;99.90
15872;DHT22;8035;51.962;7.162;2023-04-19T01:18:36;8.90;99.90
15872;DHT22;8035;51.962;7.162;2023-04-19T01:21:03;9.00;99.90
15872;DHT22;8035;51.962;7.162;2023-04-19T01:23:29;9.00;99.90
15872;DHT22;8035;51.962;7.162;2023-04-19T01:25:55;9.00;99.90
15872;DHT22;8035;51.962;7.162;2023-04-19T01:28:21;9.00;99.90
15872;DHT22;8035;51.962;7.162;2023-04-19T01:30:46;9.00;99.90
15872;DHT22;8035;51.962;7.162;2023-04-19T01:33:15;9.00;99.90
15872;DHT22;8035;51.962;7.162;2023-04-19T01:35:41;9.00;99.90
15872;DHT22;8035;51.962;7.162;2023-04-19T01:38:06;9.10;99.90
15872;DHT22;8035;51.962;7.162;2023-04-19T01:40:32;9.10;99.90
15872;DHT22;8035;51.962;7.162;2023-04-19T01:42:58;9.10;99.90
15872;DHT22;8035;51.962;7.162;2023-04-19T01:45:23;9.10;99.90
15872;DHT22;8035;51.962;7.162;2023-04-19T01:47:50;9.10;99.90
15872;DHT22;8035;51.962;7.162;2023-04-19T01:50:15;9.10;99.90
15872;DHT22;8035;51.962;7.162;2023-04-19T01:52:41;9.10;99.90
15872;DHT22;8035;51.962;7.162;2023-04-19T01:55:07;9.10;99.90
15872;DHT22;8035;51.962;7.162;2023-04-19T01:57:33;9.10;99.90
15872;DHT22;8035;51.962;7.162;2023-04-19T01:59:58;9.20;99.90
15872;DHT22;8035;51.962;7.162;2023-04-19T02:02:24;9.20;99.90
15872;DHT22;8035;51.962;7.162;2023-04-19T02:04:49;9.20;99.90
15872;DHT22;8035;51.962;7.162;2023-04-19T02:07:15;9.20;99.90
15872;DHT22;8035;51.962;7.162;2023-04-19T02:09:41;9.10;99.90
15872;DHT22;8035;51.962;7.162;2023-04-19T02:12:06;9.10;99.90
15872;DHT22;8035;51.962;7.162;2023-04-19T02:14:32;9.10;99.90
15872;DHT22;8035;51.962;7.162;2023-04-19T02:16:57;9.10;99.90
15872;DHT22;8035;51.962;7.162;2023-04-19T02:19:23;9.10;99.90
15872;DHT22;8035;51.962;7.162;2023-04-19T02:21:49;9.10;99.90
15872;DHT22;8035;51.962;7.162;2023-04-19T02:24:14;9.10;99.90
15872;DHT22;8035;51.962;7.162;2023-04-19T02:26:40;9.10;99.90
15872;DHT22;8035;51.962;7.162;2023-04-19T02:29:06;9.10;99.90
15872;DHT22;8035;51.962;7.162;2023-04-19T02:31:31;9.10;99.90
15872;DHT22;8035;51.962;7.162;2023-04-19T02:33:57;9.10;99.90
15872;DHT22;8035;51.962;7.162;2023-04-19T02:36:23;9.00;99.90
15872;DHT22;8035;51.962;7.162;2023-04-19T02:38:48;9.00;99.90
15872;DHT22;8035;51.962;7.162;2023-04-19T02:41:14;9.00;99.90
15872;DHT22;8035;51.962;7.162;2023-04-19T02:43:40;9.00;99.90
15872;DHT22;8035;51.962;7.162;2023-04-19T02:46:05;9.00;99.90
15872;DHT22;8035;51.962;7.162;2023-04-19T02:48:31;8.90;99.90
15872;DHT22;8035;51.962;7.162;2023-04-19T02:50:57;8.90;99.90
15872;DHT22;8035;51.962;7.162;2023-04-19T02:53:22;8.90;99.90
15872;DHT22;8035;51.962;7.162;2023-04-19T02:55:48;8.90;99.90
15872;DHT22;8035;51.962;7.162;2023-04-19T02:58:14;8.90;99.90
15872;DHT22;8035;51.962;7.162;2023-04-19T03:00:40;8.80;99.90
15872;DHT22;8035;51.962;7.162;2023-04-19T03:03:06;8.80;99.90
15872;DHT22;8035;51.962;7.162;2023-04-19T03:05:32;8.70;99.90
15872;DHT22;8035;51.962;7.162;2023-04-19T03:07:57;8.70;99.90
15872;DHT22;8035;51.962;7.162;2023-04-19T03:10:23;8.70;99.90
15872;DHT22;8035;51.962;7.162;2023-04-19T03:12:49;8.70;99.90
15872;DHT22;8035;51.962;7.162;2023-04-19T03:15:15;8.70;99.90
15872;DHT22;8035;51.962;7.162;2023-04-19T03:17:40;8.70;99.90
15872;DHT22;8035;51.962;7.162;2023-04-19T03:20:07;8.70;99.90
15872;DHT22;8035;51.962;7.162;2023-04-19T03:22:36;8.70;99.90
15872;DHT22;8035;51.962;7.162;2023-04-19T03:25:03;8.70;99.90
15872;DHT22;8035;51.962;7.162;2023-04-19T03:27:29;8.70;99.90
15872;DHT22;8035;51.962;7.162;2023-04-19T03:29:55;8.70;99.90
15872;DHT22;8035;51.962;7.162;2023-04-19T03:32:20;8.70;99.90
15872;DHT22;8035;51.962;7.162;2023-04-19T03:34:46;8.70;99.90
15872;DHT22;8035;51.962;7.162;2023-04-19T03:37:12;8.70;99.90
15872;DHT22;8035;51.962;7.162;2023-04-19T03:39:37;8.80;99.90
15872;DHT22;8035;51.962;7.162;2023-04-19T03:42:03;8.70;99.90
15872;DHT22;8035;51.962;7.162;2023-04-19T03:44:32;8.70;99.90
15872;DHT22;8035;51.962;7.162;2023-04-19T03:46:57;8.70;99.90
15872;DHT22;8035;51.962;7.162;2023-04-19T03:49:23;8.70;99.90
15872;DHT22;8035;51.962;7.162;2023-04-19T03:51:49;8.80;99.90
15872;DHT22;8035;51.962;7.162;2023-04-19T03:54:15;8.80;99.90
15872;DHT22;8035;51.962;7.162;2023-04-19T03:56:41;8.80;99.90
15872;DHT22;8035;51.962;7.162;2023-04-19T03:59:07;8.80;99.90
15872;DHT22;8035;51.962;7.162;2023-04-19T04:01:34;8.80;99.90
15872;DHT22;8035;51.962;7.162;2023-04-19T04:03:59;8.80;99.90
15872;DHT22;8035;51.962;7.162;2023-04-19T04:06:25;8.80;99.90
15872;DHT22;8035;51.962;7.162;2023-04-19T04:08:51;8.70;99.90
15872;DHT22;8035;51.962;7.162;2023-04-19T04:11:17;8.70;99.90
15872;DHT22;8035;51.962;7.162;2023-04-19T04:13:42;8.70;99.90
15872;DHT22;8035;51.962;7.162;2023-04-19T04:16:10;8.70;99.90
15872;DHT22;8035;51.962;7.162;2023-04-19T04:18:36;8.60;99.90
15872;DHT22;8035;51.962;7.162;2023-04-19T04:21:02;8.60;99.90
15872;DHT22;8035;51.962;7.162;2023-04-19T04:23:28;8.60;99.90
15872;DHT22;8035;51.962;7.162;2023-04-19T04:25:58;8.60;99.90
15872;DHT22;8035;51.962;7.162;2023-04-19T04:28:29;8.50;99.90
15872;DHT22;8035;51.962;7.162;2023-04-19T04:30:56;8.50;99.90
15872;DHT22;8035;51.962;7.162;2023-04-19T04:33:26;8.50;99.90
15872;DHT22;8035;51.962;7.162;2023-04-19T04:35:55;8.50;99.90
15872;DHT22;8035;51.962;7.162;2023-04-19T04:38:22;8.40;99.90
15872;DHT22;8035;51.962;7.162;2023-04-19T04:40:54;8.40;99.90
15872;DHT22;8035;51.962;7.162;2023-04-19T04:43:22;8.40;99.90
15872;DHT22;8035;51.962;7.162;2023-04-19T04:45:48;8.30;99.90
15872;DHT22;8035;51.962;7.162;2023-04-19T04:48:14;8.30;99.90
15872;DHT22;8035;51.962;7.162;2023-04-19T04:50:40;8.30;99.90
15872;DHT22;8035;51.962;7.162;2023-04-19T04:53:06;8.20;99.90
15872;DHT22;8035;51.962;7.162;2023-04-19T04:55:33;8.20;99.90
15872;DHT22;8035;51.962;7.162;2023-04-19T04:57:58;8.10;99.90
15872;DHT22;8035;51.962;7.162;2023-04-19T05:00:24;8.10;99.90
15872;DHT22;8035;51.962;7.162;2023-04-19T05:02:50;8.10;99.90
15872;DHT22;8035;51.962;7.162;2023-04-19T05:05:16;8.00;99.90
15872;DHT22;8035;51.962;7.162;2023-04-19T05:07:41;8.00;99.90
15872;DHT22;8035;51.962;7.162;2023-04-19T05:10:08;7.90;99.90
15872;DHT22;8035;51.962;7.162;2023-04-19T05:12:33;7.90;99.90
15872;DHT22;8035;51.962;7.162;2023-04-19T05:14:59;7.80;99.90
15872;DHT22;8035;51.962;7.162;2023-04-19T05:17:25;7.80;99.90
15872;DHT22;8035;51.962;7.162;2023-04-19T05:19:50;7.70;99.90
15872;DHT22;8035;51.962;7.162;2023-04-19T05:22:16;7.70;99.90
15872;DHT22;8035;51.962;7.162;2023-04-19T05:24:42;7.70;99.90
15872;DHT22;8035;51.962;7.162;2023-04-19T05:27:07;7.60;99.90
15872;DHT22;8035;51.962;7.162;2023-04-19T05:29:34;7.60;99.90
15872;DHT22;8035;51.962;7.162;2023-04-19T05:31:59;7.60;99.90
15872;DHT22;8035;51.962;7.162;2023-04-19T05:34:25;7.50;99.90
15872;DHT22;8035;51.962;7.162;2023-04-19T05:36:51;7.50;99.90
15872;DHT22;8035;51.962;7.162;2023-04-19T05:39:16;7.40;99.90
15872;DHT22;8035;51.962;7.162;2023-04-19T05:41:42;7.40;99.90
15872;DHT22;8035;51.962;7.162;2023-04-19T05:44:08;7.40;99.90
15872;DHT22;8035;51.962;7.162;2023-04-19T05:46:33;7.40;99.90
15872;DHT22;8035;51.962;7.162;2023-04-19T05:48:59;7.50;99.90
15872;DHT22;8035;51.962;7.162;2023-04-19T05:51:25;7.60;99.90
15872;DHT22;8035;51.962;7.162;2023-04-19T05:53:51;7.70;99.90
15872;DHT22;8035;51.962;7.162;2023-04-19T05:56:17;7.80;99.90
15872;DHT22;8035;51.962;7.162;2023-04-19T05:58:43;7.90;99.90
15872;DHT22;8035;51.962;7.162;2023-04-19T06:01:08;8.00;99.90
15872;DHT22;8035;51.962;7.162;2023-04-19T06:03:34;8.20;99.90
15872;DHT22;8035;51.962;7.162;2023-04-19T06:06:00;8.20;99.90
15872;DHT22;8035;51.962;7.162;2023-04-19T06:08:26;8.20;99.90
15872;DHT22;8035;51.962;7.162;2023-04-19T06:10:51;8.20;99.90
15872;DHT22;8035;51.962;7.162;2023-04-19T06:13:18;8.20;99.90
15872;DHT22;8035;51.962;7.162;2023-04-19T06:15:46;8.40;99.90
15872;DHT22;8035;51.962;7.162;2023-04-19T06:18:12;8.50;99.90
15872;DHT22;8035;51.962;7.162;2023-04-19T06:20:38;8.70;99.90
15872;DHT22;8035;51.962;7.162;2023-04-19T06:23:05;8.80;99.90
15872;DHT22;8035;51.962;7.162;2023-04-19T06:25:31;8.90;99.90
15872;DHT22;8035;51.962;7.162;2023-04-19T06:27:56;9.00;99.90
15872;DHT22;8035;51.962;7.162;2023-04-19T06:30:22;9.10;99.90
15872;DHT22;8035;51.962;7.162;2023-04-19T06:32:47;9.00;99.90
15872;DHT22;8035;51.962;7.162;2023-04-19T06:35:14;8.90;99.90
15872;DHT22;8035;51.962;7.162;2023-04-19T06:37:39;9.00;99.90
15872;DHT22;8035;51.962;7.162;2023-04-19T06:40:06;9.00;99.90
15872;DHT22;8035;51.962;7.162;2023-04-19T06:42:33;9.10;99.90
15872;DHT22;8035;51.962;7.162;2023-04-19T06:44:59;9.10;99.90
15872;DHT22;8035;51.962;7.162;2023-04-19T06:47:25;9.10;99.90
15872;DHT22;8035;51.962;7.162;2023-04-19T06:49:51;9.30;99.90
15872;DHT22;8035;51.962;7.162;2023-04-19T06:52:16;9.30;99.90
15872;DHT22;8035;51.962;7.162;2023-04-19T06:54:46;9.40;99.90
15872;DHT22;8035;51.962;7.162;2023-04-19T06:57:12;9.50;99.90
15872;DHT22;8035;51.962;7.162;2023-04-19T06:59:38;9.50;99.90
15872;DHT22;8035;51.962;7.162;2023-04-19T07:02:04;9.50;99.90
15872;DHT22;8035;51.962;7.162;2023-04-19T07:04:29;9.40;99.90
15872;DHT22;8035;51.962;7.162;2023-04-19T07:06:55;9.40;99.90
15872;DHT22;8035;51.962;7.162;2023-04-19T07:09:21;9.50;99.90
15872;DHT22;8035;51.962;7.162;2023-04-19T07:11:46;9.40;99.90
15872;DHT22;8035;51.962;7.162;2023-04-19T07:14:13;9.50;99.90
15872;DHT22;8035;51.962;7.162;2023-04-19T07:16:40;9.50;99.90
15872;DHT22;8035;51.962;7.162;2023-04-19T07:19:05;9.70;99.90
15872;DHT22;8035;51.962;7.162;2023-04-19T07:21:31;9.80;99.90
15872;DHT22;8035;51.962;7.162;2023-04-19T07:23:58;9.80;99.90
15872;DHT22;8035;51.962;7.162;2023-04-19T07:26:24;9.90;99.90
15872;DHT22;8035;51.962;7.162;2023-04-19T07:28:49;9.90;99.90
15872;DHT22;8035;51.962;7.162;2023-04-19T07:31:16;10.00;99.90
15872;DHT22;8035;51.962;7.162;2023-04-19T07:33:42;10.10;99.90
15872;DHT22;8035;51.962;7.162;2023-04-19T07:36:08;10.20;99.90
15872;DHT22;8035;51.962;7.162;2023-04-19T07:38:34;10.20;99.90
15872;DHT22;8035;51.962;7.162;2023-04-19T07:41:00;10.30;99.90
15872;DHT22;8035;51.962;7.162;2023-04-19T07:43:25;10.50;99.90
15872;DHT22;8035;51.962;7.162;2023-04-19T07:45:53;10.80;99.90
15872;DHT22;8035;51.962;7.162;2023-04-19T07:48:18;10.90;99.90
15872;DHT22;8035;51.962;7.162;2023-04-19T07:50:44;10.80;99.90
15872;DHT22;8035;51.962;7.162;2023-04-19T07:53:09;10.90;99.90
15872;DHT22;8035;51.962;7.162;2023-04-19T07:55:35;10.90;99.90
15872;DHT22;8035;51.962;7.162;2023-04-19T07:58:01;10.90;99.90
15872;DHT22;8035;51.962;7.162;2023-04-19T08:00:27;11.00;99.90
15872;DHT22;8035;51.962;7.162;2023-04-19T08:02:55;11.10;99.90
15872;DHT22;8035;51.962;7.162;2023-04-19T08:05:21;11.30;99.90
15872;DHT22;8035;51.962;7.162;2023-04-19T08:07:49;11.40;99.90
15872;DHT22;8035;51.962;7.162;2023-04-19T08:10:17;11.50;99.90
15872;DHT22;8035;51.962;7.162;2023-04-19T08:12:43;11.30;99.90
15872;DHT22;8035;51.962;7.162;2023-04-19T08:15:09;11.40;99.90
15872;DHT22;8035;51.962;7.162;2023-04-19T08:17:35;11.50;99.90
15872;DHT22;8035;51.962;7.162;2023-04-19T08:20:00;11.70;99.90
15872;DHT22;8035;51.962;7.162;2023-04-19T08:22:26;11.70;99.90
15872;DHT22;8035;51.962;7.162;2023-04-19T08:24:52;11.70;99.90
15872;DHT22;8035;51.962;7.162;2023-04-19T08:27:18;11.80;99.90
15872;DHT22;8035;51.962;7.162;2023-04-19T08:29:44;11.90;99.90
15872;DHT22;8035;51.962;7.162;2023-04-19T08:32:11;12.00;99.90
15872;DHT22;8035;51.962;7.162;2023-04-19T08:34:38;12.10;99.90
15872;DHT22;8035;51.962;7.162;2023-04-19T08:37:04;12.20;99.90
15872;DHT22;8035;51.962;7.162;2023-04-19T08:39:33;12.20;99.90
15872;DHT22;8035;51.962;7.162;2023-04-19T08:42:07;12.40;99.90
15872;DHT22;8035;51.962;7.162;2023-04-19T08:44:34;12.60;99.90
15872;DHT22;8035;51.962;7.162;2023-04-19T08:47:00;12.70;99.90
15872;DHT22;8035;51.962;7.162;2023-04-19T08:49:29;12.60;99.90
15872;DHT22;8035;51.962;7.162;2023-04-19T08:51:57;12.70;99.90
15872;DHT22;8035;51.962;7.162;2023-04-19T08:54:23;12.80;99.90
15872;DHT22;8035;51.962;7.162;2023-04-19T08:56:52;12.90;99.90
15872;DHT22;8035;51.962;7.162;2023-04-19T08:59:18;12.80;99.90
15872;DHT22;8035;51.962;7.162;2023-04-19T09:01:44;12.80;99.90
15872;DHT22;8035;51.962;7.162;2023-04-19T09:04:09;13.10;99.90
15872;DHT22;8035;51.962;7.162;2023-04-19T09:06:39;13.20;99.90
15872;DHT22;8035;51.962;7.162;2023-04-19T09:09:24;13.20;99.90
15872;DHT22;8035;51.962;7.162;2023-04-19T09:11:50;13.30;99.90
15872;DHT22;8035;51.962;7.162;2023-04-19T09:14:18;13.40;99.90
15872;DHT22;8035;51.962;7.162;2023-04-19T09:16:44;13.40;99.90
15872;DHT22;8035;51.962;7.162;2023-04-19T09:19:10;13.40;99.90
15872;DHT22;8035;51.962;7.162;2023-04-19T09:21:37;13.50;99.90
15872;DHT22;8035;51.962;7.162;2023-04-19T09:24:03;13.70;99.90
15872;DHT22;8035;51.962;7.162;2023-04-19T09:26:30;13.90;99.90
15872;DHT22;8035;51.962;7.162;2023-04-19T09:28:56;14.00;99.90
15872;DHT22;8035;51.962;7.162;2023-04-19T09:31:23;14.00;99.90
15872;DHT22;8035;51.962;7.162;2023-04-19T09:33:50;14.10;99.90
15872;DHT22;8035;51.962;7.162;2023-04-19T09:36:29;14.00;99.90
15872;DHT22;8035;51.962;7.162;2023-04-19T09:38:55;13.90;99.80
15872;DHT22;8035;51.962;7.162;2023-04-19T09:41:21;14.00;99.30
15872;DHT22;8035;51.962;7.162;2023-04-19T09:43:46;14.10;99.90
15872;DHT22;8035;51.962;7.162;2023-04-19T18:14:31;14.40;99.90
15872;DHT22;8035;51.962;7.162;2023-04-19T18:16:56;11.30;83.80
15872;DHT22;8035;51.962;7.162;2023-04-19T18:19:22;11.20;84.10
15872;DHT22;8035;51.962;7.162;2023-04-19T18:21:49;11.10;84.20
15872;DHT22;8035;51.962;7.162;2023-04-19T18:24:15;11.00;84.60
15872;DHT22;8035;51.962;7.162;2023-04-19T18:26:42;10.90;84.70
15872;DHT22;8035;51.962;7.162;2023-04-19T18:29:08;10.90;84.70
15872;DHT22;8035;51.962;7.162;2023-04-19T18:31:34;10.90;84.90
15872;DHT22;8035;51.962;7.162;2023-04-19T18:34:00;10.80;85.40
15872;DHT22;8035;51.962;7.162;2023-04-19T18:36:26;10.70;85.30
15872;DHT22;8035;51.962;7.162;2023-04-19T18:38:53;10.70;85.30
15872;DHT22;8035;51.962;7.162;2023-04-19T18:41:19;10.60;85.60
15872;DHT22;8035;51.962;7.162;2023-04-19T18:43:45;10.60;85.70
15872;DHT22;8035;51.962;7.162;2023-04-19T18:46:11;10.50;85.40
15872;DHT22;8035;51.962;7.162;2023-04-19T18:48:36;10.50;85.70
15872;DHT22;8035;51.962;7.162;2023-04-19T18:51:02;10.40;85.70
15872;DHT22;8035;51.962;7.162;2023-04-19T18:53:27;10.40;85.90
15872;DHT22;8035;51.962;7.162;2023-04-19T18:55:55;10.30;86.30
15872;DHT22;8035;51.962;7.162;2023-04-19T18:58:27;10.30;86.60
15872;DHT22;8035;51.962;7.162;2023-04-19T19:00:53;10.20;86.90
15872;DHT22;8035;51.962;7.162;2023-04-19T19:03:23;10.10;87.40
15872;DHT22;8035;51.962;7.162;2023-04-19T19:05:50;10.10;87.60
15872;DHT22;8035;51.962;7.162;2023-04-19T19:08:16;10.10;87.70
15872;DHT22;8035;51.962;7.162;2023-04-19T19:10:42;10.00;87.90
15872;DHT22;8035;51.962;7.162;2023-04-19T19:13:08;10.00;88.20
15872;DHT22;8035;51.962;7.162;2023-04-19T19:15:33;10.00;88.50
15872;DHT22;8035;51.962;7.162;2023-04-19T19:18:01;9.90;89.80
15872;DHT22;8035;51.962;7.162;2023-04-19T19:20:27;9.90;90.00
15872;DHT22;8035;51.962;7.162;2023-04-19T19:22:53;9.80;90.10
15872;DHT22;8035;51.962;7.162;2023-04-19T19:25:19;9.80;90.10
15872;DHT22;8035;51.962;7.162;2023-04-19T19:27:46;9.80;90.20
15872;DHT22;8035;51.962;7.162;2023-04-19T19:30:12;9.80;90.30
15872;DHT22;8035;51.962;7.162;2023-04-19T19:32:38;9.70;90.30
15872;DHT22;8035;51.962;7.162;2023-04-19T19:35:05;9.70;90.30
15872;DHT22;8035;51.962;7.162;2023-04-19T19:37:34;9.70;90.50
15872;DHT22;8035;51.962;7.162;2023-04-19T19:40:00;9.70;90.50
15872;DHT22;8035;51.962;7.162;2023-04-19T19:42:26;9.60;90.70
15872;DHT22;8035;51.962;7.162;2023-04-19T19:44:54;9.60;90.70
15872;DHT22;8035;51.962;7.162;2023-04-19T19:47:23;9.60;90.50
15872;DHT22;8035;51.962;7.162;2023-04-19T19:49:48;9.50;90.60
15872;DHT22;8035;51.962;7.162;2023-04-19T19:52:14;9.50;90.60
15872;DHT22;8035;51.962;7.162;2023-04-19T19:54:40;9.50;90.60
15872;DHT22;8035;51.962;7.162;2023-04-19T19:57:05;9.40;90.40
15872;DHT22;8035;51.962;7.162;2023-04-19T19:59:31;9.40;90.40
15872;DHT22;8035;51.962;7.162;2023-04-19T20:01:56;9.40;90.30
15872;DHT22;8035;51.962;7.162;2023-04-19T20:04:22;9.40;90.10
15872;DHT22;8035;51.962;7.162;2023-04-19T20:06:48;9.30;89.90
15872;DHT22;8035;51.962;7.162;2023-04-19T20:09:13;9.30;90.10
15872;DHT22;8035;51.962;7.162;2023-04-19T20:11:39;9.30;90.10
15872;DHT22;8035;51.962;7.162;2023-04-19T20:14:05;9.20;90.20
15872;DHT22;8035;51.962;7.162;2023-04-19T20:16:31;9.10;90.10
15872;DHT22;8035;51.962;7.162;2023-04-19T20:18:57;9.10;90.10
15872;DHT22;8035;51.962;7.162;2023-04-19T20:21:23;9.00;90.10
15872;DHT22;8035;51.962;7.162;2023-04-19T20:23:49;9.00;90.00
15872;DHT22;8035;51.962;7.162;2023-04-19T20:26:15;8.90;90.30
15872;DHT22;8035;51.962;7.162;2023-04-19T20:28:40;8.90;90.20
15872;DHT22;8035;51.962;7.162;2023-04-19T20:31:06;8.90;90.10
15872;DHT22;8035;51.962;7.162;2023-04-19T20:33:31;8.80;89.90
15872;DHT22;8035;51.962;7.162;2023-04-19T20:35:57;8.90;89.60
15872;DHT22;8035;51.962;7.162;2023-04-19T20:38:25;8.80;89.80
15872;DHT22;8035;51.962;7.162;2023-04-19T20:40:54;8.80;89.80
15872;DHT22;8035;51.962;7.162;2023-04-19T20:43:20;8.80;89.90
15872;DHT22;8035;51.962;7.162;2023-04-19T20:45:45;8.70;90.00
15872;DHT22;8035;51.962;7.162;2023-04-19T20:48:11;8.70;90.00
15872;DHT22;8035;51.962;7.162;2023-04-19T20:50:37;8.70;90.00
15872;DHT22;8035;51.962;7.162;2023-04-19T20:53:03;8.70;89.80
15872;DHT22;8035;51.962;7.162;2023-04-19T20:55:28;8.60;90.00
15872;DHT22;8035;51.962;7.162;2023-04-19T20:57:54;8.70;88.90
15872;DHT22;8035;51.962;7.162;2023-04-19T21:00:20;8.60;88.90
15872;DHT22;8035;51.962;7.162;2023-04-19T21:02:46;8.70;88.30
15872;DHT22;8035;51.962;7.162;2023-04-19T21:05:11;8.70;87.60
15872;DHT22;8035;51.962;7.162;2023-04-19T21:07:37;8.80;87.20
15872;DHT22;8035;51.962;7.162;2023-04-19T21:10:03;8.80;86.80
15872;DHT22;8035;51.962;7.162;2023-04-19T21:12:29;8.80;87.20
15872;DHT22;8035;51.962;7.162;2023-04-19T21:14:55;8.80;87.30
15872;DHT22;8035;51.962;7.162;2023-04-19T21:17:20;8.70;87.10
15872;DHT22;8035;51.962;7.162;2023-04-19T21:19:47;8.70;87.30
15872;DHT22;8035;51.962;7.162;2023-04-19T21:22:12;8.60;87.00
15872;DHT22;8035;51.962;7.162;2023-04-19T21:24:38;8.60;86.80
15872;DHT22;8035;51.962;7.162;2023-04-19T21:27:03;8.70;85.70
15872;DHT22;8035;51.962;7.162;2023-04-19T21:29:29;8.70;86.20
15872;DHT22;8035;51.962;7.162;2023-04-19T21:31:55;8.60;85.70
15872;DHT22;8035;51.962;7.162;2023-04-19T21:34:21;8.60;86.10
15872;DHT22;8035;51.962;7.162;2023-04-19T21:36:47;8.60;85.90
15872;DHT22;8035;51.962;7.162;2023-04-19T21:39:12;8.50;85.90
15872;DHT22;8035;51.962;7.162;2023-04-19T21:41:38;8.40;86.00
15872;DHT22;8035;51.962;7.162;2023-04-19T21:44:03;8.40;86.20
15872;DHT22;8035;51.962;7.162;2023-04-19T21:46:29;8.30;86.50
15872;DHT22;8035;51.962;7.162;2023-04-19T21:48:55;8.30;86.60
15872;DHT22;8035;51.962;7.162;2023-04-19T21:51:20;8.30;86.40
15872;DHT22;8035;51.962;7.162;2023-04-19T21:53:46;8.30;86.40
15872;DHT22;8035;51.962;7.162;2023-04-19T21:56:12;8.20;86.70
15872;DHT22;8035;51.962;7.162;2023-04-19T21:58:37;8.10;86.60
15872;DHT22;8035;51.962;7.162;2023-04-19T22:01:03;8.10;87.10
15872;DHT22;8035;51.962;7.162;2023-04-19T22:03:28;8.00;87.50
15872;DHT22;8035;51.962;7.162;2023-04-19T22:05:54;7.90;87.70
15872;DHT22;8035;51.962;7.162;2023-04-19T22:08:20;7.90;88.40
15872;DHT22;8035;51.962;7.162;2023-04-19T22:10:46;7.90;87.90
15872;DHT22;8035;51.962;7.162;2023-04-19T22:13:14;7.80;87.90
15872;DHT22;8035;51.962;7.162;2023-04-19T22:15:42;7.80;88.00
15872;DHT22;8035;51.962;7.162;2023-04-19T22:18:07;7.80;87.90
15872;DHT22;8035;51.962;7.162;2023-04-19T22:20:34;7.80;88.30
15872;DHT22;8035;51.962;7.162;2023-04-19T22:23:00;7.80;87.90
15872;DHT22;8035;51.962;7.162;2023-04-19T22:25:25;7.80;88.00
15872;DHT22;8035;51.962;7.162;2023-04-19T22:27:51;7.80;88.20
15872;DHT22;8035;51.962;7.162;2023-04-19T22:30:17;7.80;88.50
15872;DHT22;8035;51.962;7.162;2023-04-19T22:32:42;7.70;88.60
15872;DHT22;8035;51.962;7.162;2023-04-19T22:35:08;7.70;89.00
15872;DHT22;8035;51.962;7.162;2023-04-19T22:37:34;7.60;89.50
15872;DHT22;8035;51.962;7.162;2023-04-19T22:40:00;7.60;89.60
15872;DHT22;8035;51.962;7.162;2023-04-19T22:42:25;7.50;89.90
15872;DHT22;8035;51.962;7.162;2023-04-19T22:44:51;7.40;90.00
15872;DHT22;8035;51.962;7.162;2023-04-19T22:47:16;7.40;90.20
15872;DHT22;8035;51.962;7.162;2023-04-19T22:49:43;7.40;90.20
15872;DHT22;8035;51.962;7.162;2023-04-19T22:52:10;7.30;90.30
15872;DHT22;8035;51.962;7.162;2023-04-19T22:54:36;7.30;90.40
15872;DHT22;8035;51.962;7.162;2023-04-19T22:57:01;7.20;90.50
15872;DHT22;8035;51.962;7.162;2023-04-19T22:59:27;7.20;90.60
15872;DHT22;8035;51.962;7.162;2023-04-19T23:01:53;7.20;90.70
15872;DHT22;8035;51.962;7.162;2023-04-19T23:04:19;7.10;90.70
15872;DHT22;8035;51.962;7.162;2023-04-19T23:06:44;7.10;90.70
15872;DHT22;8035;51.962;7.162;2023-04-19T23:09:13;7.10;90.80
15872;DHT22;8035;51.962;7.162;2023-04-19T23:11:39;7.10;91.00
15872;DHT22;8035;51.962;7.162;2023-04-19T23:14:06;7.10;90.90
15872;DHT22;8035;51.962;7.162;2023-04-19T23:16:33;7.00;91.30
15872;DHT22;8035;51.962;7.162;2023-04-19T23:18:59;7.00;91.00
15872;DHT22;8035;51.962;7.162;2023-04-19T23:21:25;7.00;91.00
15872;DHT22;8035;51.962;7.162;2023-04-19T23:23:51;7.00;91.00
15872;DHT22;8035;51.962;7.162;2023-04-19T23:26:17;7.00;91.00
15872;DHT22;8035;51.962;7.162;2023-04-19T23:28:42;6.90;91.10
15872;DHT22;8035;51.962;7.162;2023-04-19T23:31:08;6.90;91.10
15872;DHT22;8035;51.962;7.162;2023-04-19T23:33:33;6.90;91.30
15872;DHT22;8035;51.962;7.162;2023-04-19T23:35:59;6.90;91.40
15872;DHT22;8035;51.962;7.162;2023-04-19T23:38:25;6.90;91.60
15872;DHT22;8035;51.962;7.162;2023-04-19T23:40:50;6.90;91.80
15872;DHT22;8035;51.962;7.162;2023-04-19T23:43:16;7.00;92.00
15872;DHT22;8035;51.962;7.162;2023-04-19T23:45:41;7.00;92.30
15872;DHT22;8035;51.962;7.162;2023-04-19T23:48:07;7.10;92.30
15872;DHT22;8035;51.962;7.162;2023-04-19T23:50:32;7.20;92.80
15872;DHT22;8035;51.962;7.162;2023-04-19T23:52:58;7.30;92.70
15872;DHT22;8035;51.962;7.162;2023-04-19T23:55:24;7.40;92.90
15872;DHT22;8035;51.962;7.162;2023-04-19T23:57:49;7.50;92.90
